sensor_id;sensor_type;location;lat;lon;timestamp;P1;durP1;ratioP1;P2;durP2;ratioP2
1090;SDS011;534;48.704;9.122;2023-09-12T04:00:39;4.60;;;3.67;;
1090;SDS011;534;48.704;9.122;2023-09-12T04:03:06;5.00;;;4.00;;
1090;SDS011;534;48.704;9.122;2023-09-12T04:05:33;4.33;;;3.93;;
1090;SDS011;534;48.704;9.122;2023-09-12T04:07:59;4.63;;;4.23;;
1090;SDS011;534;48.704;9.122;2023-09-12T04:10:26;4.70;;;3.87;;
1090;SDS011;534;48.704;9.122;2023-09-12T04:12:53;4.80;;;3.97;;
1090;SDS011;534;48.704;9.122;2023-09-12T04:15:20;5.10;;;4.60;;
1090;SDS011;534;48.704;9.122;2023-09-12T04:17:48;5.13;;;3.63;;
1090;SDS011;534;48.704;9.122;2023-09-12T04:20:14;4.27;;;3.97;;
1090;SDS011;534;48.704;9.122;2023-09-12T04:22:41;3.80;;;3.40;;
1090;SDS011;534;48.704;9.122;2023-09-12T04:25:08;5.23;;;4.03;;
1090;SDS011;534;48.704;9.122;2023-09-12T04:27:35;4.90;;;4.40;;
1090;SDS011;534;48.704;9.122;2023-09-12T04:30:03;4.30;;;3.83;;
1090;SDS011;534;48.704;9.122;2023-09-12T04:32:30;5.43;;;4.93;;
1090;SDS011;534;48.704;9.122;2023-09-12T04:34:59;4.20;;;3.80;;
1090;SDS011;534;48.704;9.122;2023-09-12T04:37:25;4.67;;;4.00;;
1090;SDS011;534;48.704;9.122;2023-09-12T04:39:52;4.77;;;3.90;;
1090;SDS011;534;48.704;9.122;2023-09-12T04:42:19;5.07;;;4.17;;
1090;SDS011;534;48.704;9.122;2023-09-12T04:44:45;4.27;;;3.83;;
1090;SDS011;534;48.704;9.122;2023-09-12T04:47:12;5.23;;;4.27;;
1090;SDS011;534;48.704;9.122;2023-09-12T04:49:39;4.50;;;4.10;;
1090;SDS011;534;48.704;9.122;2023-09-12T04:52:07;6.57;;;4.47;;
1090;SDS011;534;48.704;9.122;2023-09-12T04:54:34;6.20;;;4.43;;
1090;SDS011;534;48.704;9.122;2023-09-12T04:57:01;4.57;;;4.17;;
1090;SDS011;534;48.704;9.122;2023-09-12T04:59:28;5.63;;;4.00;;
1090;SDS011;534;48.704;9.122;2023-09-12T05:01:55;4.97;;;4.57;;
1090;SDS011;534;48.704;9.122;2023-09-12T05:04:21;4.70;;;4.30;;
1090;SDS011;534;48.704;9.122;2023-09-12T05:06:48;5.43;;;4.23;;
1090;SDS011;534;48.704;9.122;2023-09-12T05:09:16;6.40;;;4.47;;
1090;SDS011;534;48.704;9.122;2023-09-12T05:11:43;4.03;;;3.63;;
1090;SDS011;534;48.704;9.122;2023-09-12T05:14:10;5.10;;;4.60;;
1090;SDS011;534;48.704;9.122;2023-09-12T05:16:36;5.30;;;4.23;;
1090;SDS011;534;48.704;9.122;2023-09-12T05:19:03;6.23;;;4.10;;
1090;SDS011;534;48.704;9.122;2023-09-12T05:21:30;6.10;;;4.53;;
1090;SDS011;534;48.704;9.122;2023-09-12T05:23:57;4.63;;;4.10;;
1090;SDS011;534;48.704;9.122;2023-09-12T05:26:25;4.93;;;3.80;;
1090;SDS011;534;48.704;9.122;2023-09-12T05:28:52;6.80;;;4.63;;
1090;SDS011;534;48.704;9.122;2023-09-12T05:31:18;5.83;;;4.23;;
1090;SDS011;534;48.704;9.122;2023-09-12T05:33:45;4.70;;;4.30;;
1090;SDS011;534;48.704;9.122;2023-09-12T05:36:12;3.93;;;3.63;;
1090;SDS011;534;48.704;9.122;2023-09-12T05:38:38;5.90;;;4.33;;
1090;SDS011;534;48.704;9.122;2023-09-12T05:41:05;4.70;;;4.30;;
1090;SDS011;534;48.704;9.122;2023-09-12T05:43:34;5.37;;;3.40;;
1090;SDS011;534;48.704;9.122;2023-09-12T05:46:00;4.90;;;3.77;;
1090;SDS011;534;48.704;9.122;2023-09-12T05:48:28;4.57;;;4.17;;
1090;SDS011;534;48.704;9.122;2023-09-12T05:50:54;4.47;;;4.10;;
1090;SDS011;534;48.704;9.122;2023-09-12T05:53:21;4.83;;;4.27;;
1090;SDS011;534;48.704;9.122;2023-09-12T05:55:48;4.83;;;4.20;;
1090;SDS011;534;48.704;9.122;2023-09-12T05:58:14;5.27;;;3.90;;
1090;SDS011;534;48.704;9.122;2023-09-12T06:00:42;4.90;;;4.00;;
1090;SDS011;534;48.704;9.122;2023-09-12T06:03:09;4.20;;;3.80;;
1090;SDS011;534;48.704;9.122;2023-09-12T06:05:35;5.13;;;4.07;;
1090;SDS011;534;48.704;9.122;2023-09-12T06:08:02;4.70;;;4.20;;
1090;SDS011;534;48.704;9.122;2023-09-12T06:10:30;4.50;;;3.73;;
1090;SDS011;534;48.704;9.122;2023-09-12T06:12:56;4.83;;;4.00;;
1090;SDS011;534;48.704;9.122;2023-09-12T06:15:23;4.00;;;3.60;;
1090;SDS011;534;48.704;9.122;2023-09-12T06:17:51;4.10;;;3.70;;
1090;SDS011;534;48.704;9.122;2023-09-12T06:20:19;4.13;;;3.73;;
1090;SDS011;534;48.704;9.122;2023-09-12T06:22:46;4.73;;;4.23;;
1090;SDS011;534;48.704;9.122;2023-09-12T06:25:14;4.73;;;4.33;;
1090;SDS011;534;48.704;9.122;2023-09-12T06:27:41;5.20;;;3.50;;
1090;SDS011;534;48.704;9.122;2023-09-12T06:30:08;5.60;;;3.63;;
1090;SDS011;534;48.704;9.122;2023-09-12T06:32:35;4.47;;;4.07;;
1090;SDS011;534;48.704;9.122;2023-09-12T06:35:05;3.90;;;3.60;;
1090;SDS011;534;48.704;9.122;2023-09-12T06:37:32;4.10;;;3.63;;
1090;SDS011;534;48.704;9.122;2023-09-12T06:39:59;4.33;;;3.93;;
1090;SDS011;534;48.704;9.122;2023-09-12T06:42:26;3.70;;;3.40;;
1090;SDS011;534;48.704;9.122;2023-09-12T06:44:52;3.83;;;3.30;;
1090;SDS011;534;48.704;9.122;2023-09-12T06:47:19;4.40;;;4.00;;
1090;SDS011;534;48.704;9.122;2023-09-12T06:49:46;6.07;;;4.30;;
1090;SDS011;534;48.704;9.122;2023-09-12T06:52:14;5.87;;;3.90;;
1090;SDS011;534;48.704;9.122;2023-09-12T06:54:41;4.20;;;3.90;;
1090;SDS011;534;48.704;9.122;2023-09-12T06:57:08;5.40;;;3.57;;
1090;SDS011;534;48.704;9.122;2023-09-12T06:59:34;3.90;;;3.30;;
1090;SDS011;534;48.704;9.122;2023-09-12T07:02:02;4.30;;;3.90;;
1090;SDS011;534;48.704;9.122;2023-09-12T07:04:29;4.40;;;4.00;;
1090;SDS011;534;48.704;9.122;2023-09-12T07:06:56;4.60;;;4.20;;
1090;SDS011;534;48.704;9.122;2023-09-12T07:09:24;4.10;;;3.70;;
1090;SDS011;534;48.704;9.122;2023-09-12T07:11:51;4.50;;;4.10;;
1090;SDS011;534;48.704;9.122;2023-09-12T07:14:18;4.37;;;3.97;;
1090;SDS011;534;48.704;9.122;2023-09-12T07:16:45;4.00;;;3.70;;
1090;SDS011;534;48.704;9.122;2023-09-12T07:19:12;3.43;;;3.13;;
1090;SDS011;534;48.704;9.122;2023-09-12T07:21:39;4.27;;;3.87;;
1090;SDS011;534;48.704;9.122;2023-09-12T07:24:05;3.70;;;3.40;;
1090;SDS011;534;48.704;9.122;2023-09-12T07:26:34;4.10;;;3.80;;
1090;SDS011;534;48.704;9.122;2023-09-12T07:29:00;4.20;;;3.90;;
1090;SDS011;534;48.704;9.122;2023-09-12T07:31:29;3.57;;;3.17;;
1090;SDS011;534;48.704;9.122;2023-09-12T07:33:56;3.67;;;3.37;;
1090;SDS011;534;48.704;9.122;2023-09-12T07:36:23;4.03;;;3.73;;
1090;SDS011;534;48.704;9.122;2023-09-12T07:38:49;4.47;;;4.07;;
1090;SDS011;534;48.704;9.122;2023-09-12T07:41:16;5.23;;;3.73;;
1090;SDS011;534;48.704;9.122;2023-09-12T07:43:45;3.70;;;3.40;;
1090;SDS011;534;48.704;9.122;2023-09-12T07:46:12;5.73;;;3.70;;
1090;SDS011;534;48.704;9.122;2023-09-12T07:48:38;4.67;;;3.47;;
1090;SDS011;534;48.704;9.122;2023-09-12T07:51:11;4.83;;;4.40;;
1090;SDS011;534;48.704;9.122;2023-09-12T07:53:39;4.43;;;4.13;;
1090;SDS011;534;48.704;9.122;2023-09-12T07:56:05;4.20;;;3.87;;
1090;SDS011;534;48.704;9.122;2023-09-12T07:58:33;4.50;;;3.87;;
1090;SDS011;534;48.704;9.122;2023-09-12T08:01:05;4.27;;;3.87;;
1090;SDS011;534;48.704;9.122;2023-09-12T08:03:32;3.73;;;3.43;;
1090;SDS011;534;48.704;9.122;2023-09-12T08:05:59;5.83;;;4.20;;
1090;SDS011;534;48.704;9.122;2023-09-12T08:08:26;4.37;;;3.60;;
1090;SDS011;534;48.704;9.122;2023-09-12T08:10:53;3.43;;;3.13;;
1090;SDS011;534;48.704;9.122;2023-09-12T08:13:21;4.77;;;4.37;;
1090;SDS011;534;48.704;9.122;2023-09-12T08:15:47;4.50;;;4.20;;
1090;SDS011;534;48.704;9.122;2023-09-12T08:18:15;4.87;;;4.47;;
1090;SDS011;534;48.704;9.122;2023-09-12T08:20:42;4.20;;;3.80;;
1090;SDS011;534;48.704;9.122;2023-09-12T08:23:09;6.70;;;4.40;;
1090;SDS011;534;48.704;9.122;2023-09-12T08:25:36;3.93;;;3.63;;
1090;SDS011;534;48.704;9.122;2023-09-12T08:28:03;4.00;;;3.60;;
1090;SDS011;534;48.704;9.122;2023-09-12T08:30:29;4.13;;;3.80;;
1090;SDS011;534;48.704;9.122;2023-09-12T08:32:57;4.17;;;3.83;;
1090;SDS011;534;48.704;9.122;2023-09-12T08:35:25;5.00;;;4.60;;
1090;SDS011;534;48.704;9.122;2023-09-12T08:37:52;4.40;;;3.87;;
1090;SDS011;534;48.704;9.122;2023-09-12T08:40:19;5.17;;;4.67;;
1090;SDS011;534;48.704;9.122;2023-09-12T08:42:46;4.17;;;3.80;;
1090;SDS011;534;48.704;9.122;2023-09-12T08:45:16;4.40;;;4.10;;
1090;SDS011;534;48.704;9.122;2023-09-12T08:47:44;3.97;;;3.57;;
1090;SDS011;534;48.704;9.122;2023-09-12T08:50:12;4.57;;;3.90;;
1090;SDS011;534;48.704;9.122;2023-09-12T08:52:44;4.47;;;4.17;;
1090;SDS011;534;48.704;9.122;2023-09-12T08:55:12;3.90;;;3.60;;
1090;SDS011;534;48.704;9.122;2023-09-12T08:57:39;4.10;;;3.80;;
1090;SDS011;534;48.704;9.122;2023-09-12T09:00:08;4.80;;;4.40;;
1090;SDS011;534;48.704;9.122;2023-09-12T09:02:38;4.53;;;4.13;;
1090;SDS011;534;48.704;9.122;2023-09-12T09:05:05;4.30;;;3.90;;
1090;SDS011;534;48.704;9.122;2023-09-12T09:07:34;4.10;;;3.80;;
1090;SDS011;534;48.704;9.122;2023-09-12T09:10:04;4.60;;;4.20;;
1090;SDS011;534;48.704;9.122;2023-09-12T09:12:32;3.90;;;3.60;;
1090;SDS011;534;48.704;9.122;2023-09-12T09:15:00;4.40;;;4.00;;
1090;SDS011;534;48.704;9.122;2023-09-12T09:17:46;5.00;;;4.60;;
1090;SDS011;534;48.704;9.122;2023-09-12T09:20:20;4.70;;;4.30;;
1090;SDS011;534;48.704;9.122;2023-09-12T09:22:55;4.13;;;3.73;;
1090;SDS011;534;48.704;9.122;2023-09-12T09:25:24;4.33;;;3.93;;
1090;SDS011;534;48.704;9.122;2023-09-12T09:27:51;4.23;;;3.93;;
1090;SDS011;534;48.704;9.122;2023-09-12T09:30:17;3.97;;;3.67;;
1090;SDS011;534;48.704;9.122;2023-09-12T09:32:45;4.50;;;4.10;;
1090;SDS011;534;48.704;9.122;2023-09-12T09:35:13;4.27;;;3.90;;
1090;SDS011;534;48.704;9.122;2023-09-12T09:37:39;5.23;;;4.73;;
1090;SDS011;534;48.704;9.122;2023-09-12T09:40:07;4.53;;;4.23;;
1090;SDS011;534;48.704;9.122;2023-09-12T09:42:36;3.90;;;3.60;;
1090;SDS011;534;48.704;9.122;2023-09-12T09:45:04;4.60;;;4.20;;
1090;SDS011;534;48.704;9.122;2023-09-12T09:47:32;4.13;;;3.73;;
1090;SDS011;534;48.704;9.122;2023-09-12T09:49:58;3.97;;;3.67;;
1090;SDS011;534;48.704;9.122;2023-09-12T09:52:25;4.07;;;3.67;;
1090;SDS011;534;48.704;9.122;2023-09-12T09:54:52;4.50;;;4.10;;
1090;SDS011;534;48.704;9.122;2023-09-12T09:57:19;4.07;;;3.67;;
1090;SDS011;534;48.704;9.122;2023-09-12T09:59:49;3.47;;;3.17;;
1090;SDS011;534;48.704;9.122;2023-09-12T10:02:18;3.80;;;3.40;;
1090;SDS011;534;48.704;9.122;2023-09-12T10:04:47;3.83;;;3.43;;
1090;SDS011;534;48.704;9.122;2023-09-12T10:07:17;4.30;;;3.90;;
1090;SDS011;534;48.704;9.122;2023-09-12T10:09:44;4.13;;;3.73;;
1090;SDS011;534;48.704;9.122;2023-09-12T10:12:11;4.03;;;3.67;;
1090;SDS011;534;48.704;9.122;2023-09-12T10:14:38;4.03;;;3.73;;
1090;SDS011;534;48.704;9.122;2023-09-12T10:17:07;5.30;;;4.10;;
1090;SDS011;534;48.704;9.122;2023-09-12T10:19:39;4.30;;;3.90;;
1090;SDS011;534;48.704;9.122;2023-09-12T10:22:12;3.70;;;3.37;;
1090;SDS011;534;48.704;9.122;2023-09-12T10:24:46;4.10;;;3.70;;
1090;SDS011;534;48.704;9.122;2023-09-12T10:27:15;4.73;;;3.63;;
1090;SDS011;534;48.704;9.122;2023-09-12T10:29:44;3.40;;;3.10;;
1090;SDS011;534;48.704;9.122;2023-09-12T10:32:15;5.07;;;3.53;;
1090;SDS011;534;48.704;9.122;2023-09-12T10:34:44;4.00;;;3.50;;
1090;SDS011;534;48.704;9.122;2023-09-12T10:37:15;4.00;;;3.60;;
1090;SDS011;534;48.704;9.122;2023-09-12T10:39:42;5.03;;;3.53;;
1090;SDS011;534;48.704;9.122;2023-09-12T10:42:09;3.80;;;3.50;;
1090;SDS011;534;48.704;9.122;2023-09-12T10:44:37;4.13;;;3.27;;
1090;SDS011;534;48.704;9.122;2023-09-12T10:47:04;4.60;;;3.13;;
1090;SDS011;534;48.704;9.122;2023-09-12T10:49:33;3.20;;;2.90;;
1090;SDS011;534;48.704;9.122;2023-09-12T10:52:00;3.93;;;3.07;;
1090;SDS011;534;48.704;9.122;2023-09-12T10:54:35;3.73;;;3.27;;
1090;SDS011;534;48.704;9.122;2023-09-12T10:57:03;3.50;;;3.20;;
1090;SDS011;534;48.704;9.122;2023-09-12T10:59:30;3.87;;;2.87;;
1090;SDS011;534;48.704;9.122;2023-09-12T11:04:56;3.10;;;2.77;;
1090;SDS011;534;48.704;9.122;2023-09-12T11:07:30;3.50;;;3.10;;
1090;SDS011;534;48.704;9.122;2023-09-12T11:10:17;3.40;;;3.10;;
1090;SDS011;534;48.704;9.122;2023-09-12T11:12:46;3.73;;;2.83;;
1090;SDS011;534;48.704;9.122;2023-09-12T11:15:14;4.83;;;3.20;;
1090;SDS011;534;48.704;9.122;2023-09-12T11:17:42;4.53;;;3.40;;
1090;SDS011;534;48.704;9.122;2023-09-12T11:20:11;3.43;;;3.10;;
1090;SDS011;534;48.704;9.122;2023-09-12T11:22:39;3.27;;;3.00;;
1090;SDS011;534;48.704;9.122;2023-09-12T11:25:16;3.47;;;3.00;;
1090;SDS011;534;48.704;9.122;2023-09-12T11:27:45;2.90;;;2.70;;
1090;SDS011;534;48.704;9.122;2023-09-12T11:30:28;2.90;;;2.70;;
1090;SDS011;534;48.704;9.122;2023-09-12T11:32:56;4.37;;;3.00;;
1090;SDS011;534;48.704;9.122;2023-09-12T11:35:25;3.30;;;3.00;;
1090;SDS011;534;48.704;9.122;2023-09-12T11:37:53;3.40;;;3.10;;
1090;SDS011;534;48.704;9.122;2023-09-12T11:40:22;3.50;;;3.13;;
1090;SDS011;534;48.704;9.122;2023-09-12T11:42:50;3.07;;;2.77;;
1090;SDS011;534;48.704;9.122;2023-09-12T11:45:18;3.67;;;2.87;;
1090;SDS011;534;48.704;9.122;2023-09-12T11:47:46;3.00;;;2.70;;
1090;SDS011;534;48.704;9.122;2023-09-12T11:50:27;3.03;;;2.73;;
1090;SDS011;534;48.704;9.122;2023-09-12T11:52:58;3.00;;;2.70;;
1090;SDS011;534;48.704;9.122;2023-09-12T11:55:26;4.00;;;2.80;;
1090;SDS011;534;48.704;9.122;2023-09-12T11:57:55;2.63;;;2.40;;
1090;SDS011;534;48.704;9.122;2023-09-12T12:00:23;3.33;;;2.67;;
1090;SDS011;534;48.704;9.122;2023-09-12T12:02:51;3.23;;;2.77;;
1090;SDS011;534;48.704;9.122;2023-09-12T12:05:18;3.43;;;3.13;;
1090;SDS011;534;48.704;9.122;2023-09-12T12:07:46;3.50;;;3.20;;
1090;SDS011;534;48.704;9.122;2023-09-12T12:10:14;3.83;;;3.00;;
1090;SDS011;534;48.704;9.122;2023-09-12T12:12:41;2.33;;;2.13;;
1090;SDS011;534;48.704;9.122;2023-09-12T12:15:10;3.57;;;2.73;;
1090;SDS011;534;48.704;9.122;2023-09-12T12:17:37;3.37;;;3.07;;
1090;SDS011;534;48.704;9.122;2023-09-12T12:20:06;2.87;;;2.67;;
1090;SDS011;534;48.704;9.122;2023-09-12T12:22:35;2.70;;;2.50;;
1090;SDS011;534;48.704;9.122;2023-09-12T12:25:06;2.87;;;2.60;;
1090;SDS011;534;48.704;9.122;2023-09-12T12:27:35;3.30;;;3.00;;
1090;SDS011;534;48.704;9.122;2023-09-12T12:30:03;3.30;;;3.00;;
1090;SDS011;534;48.704;9.122;2023-09-12T12:32:31;3.10;;;2.47;;
1090;SDS011;534;48.704;9.122;2023-09-12T12:34:58;2.70;;;2.50;;
1090;SDS011;534;48.704;9.122;2023-09-12T12:37:27;2.70;;;2.43;;
1090;SDS011;534;48.704;9.122;2023-09-12T12:39:56;2.70;;;2.50;;
1090;SDS011;534;48.704;9.122;2023-09-12T12:42:25;2.60;;;2.40;;
1090;SDS011;534;48.704;9.122;2023-09-12T12:44:52;2.97;;;2.23;;
1090;SDS011;534;48.704;9.122;2023-09-12T12:47:20;3.60;;;3.07;;
1090;SDS011;534;48.704;9.122;2023-09-12T12:49:50;2.83;;;2.57;;
1090;SDS011;534;48.704;9.122;2023-09-12T12:52:21;2.87;;;2.30;;
1090;SDS011;534;48.704;9.122;2023-09-12T12:54:48;2.20;;;2.00;;
1090;SDS011;534;48.704;9.122;2023-09-12T12:57:18;2.70;;;2.50;;
1090;SDS011;534;48.704;9.122;2023-09-12T12:59:47;2.70;;;2.50;;
1090;SDS011;534;48.704;9.122;2023-09-12T13:02:14;2.30;;;2.10;;
1090;SDS011;534;48.704;9.122;2023-09-12T13:04:41;2.73;;;2.53;;
1090;SDS011;534;48.704;9.122;2023-09-12T13:07:07;3.77;;;2.67;;
1090;SDS011;534;48.704;9.122;2023-09-12T13:09:35;2.60;;;2.40;;
1090;SDS011;534;48.704;9.122;2023-09-12T13:12:03;2.67;;;2.47;;
1090;SDS011;534;48.704;9.122;2023-09-12T13:14:31;2.93;;;2.40;;
1090;SDS011;534;48.704;9.122;2023-09-12T13:16:59;2.20;;;2.00;;
1090;SDS011;534;48.704;9.122;2023-09-12T13:19:28;2.87;;;2.57;;
1090;SDS011;534;48.704;9.122;2023-09-12T13:21:54;2.50;;;2.07;;
1090;SDS011;534;48.704;9.122;2023-09-12T13:24:21;3.20;;;2.30;;
1090;SDS011;534;48.704;9.122;2023-09-12T13:26:48;2.73;;;2.53;;
1090;SDS011;534;48.704;9.122;2023-09-12T13:29:14;3.40;;;2.87;;
1090;SDS011;534;48.704;9.122;2023-09-12T13:31:41;3.67;;;2.90;;
1090;SDS011;534;48.704;9.122;2023-09-12T13:34:09;2.73;;;2.53;;
1090;SDS011;534;48.704;9.122;2023-09-12T13:36:36;3.53;;;3.23;;
1090;SDS011;534;48.704;9.122;2023-09-12T13:39:02;3.40;;;2.60;;
1090;SDS011;534;48.704;9.122;2023-09-12T13:41:31;3.27;;;3.00;;
1090;SDS011;534;48.704;9.122;2023-09-12T13:43:58;3.60;;;3.03;;
1090;SDS011;534;48.704;9.122;2023-09-12T13:46:24;3.20;;;2.90;;
1090;SDS011;534;48.704;9.122;2023-09-12T13:48:51;3.53;;;3.10;;
1090;SDS011;534;48.704;9.122;2023-09-12T13:51:19;3.37;;;3.07;;
1090;SDS011;534;48.704;9.122;2023-09-12T13:53:46;4.10;;;2.93;;
1090;SDS011;534;48.704;9.122;2023-09-12T13:56:12;3.57;;;3.10;;
1090;SDS011;534;48.704;9.122;2023-09-12T13:58:39;4.07;;;2.73;;
1090;SDS011;534;48.704;9.122;2023-09-12T14:01:06;4.47;;;3.40;;
1090;SDS011;534;48.704;9.122;2023-09-12T14:03:32;5.43;;;3.17;;
1090;SDS011;534;48.704;9.122;2023-09-12T14:05:59;3.00;;;2.70;;
1090;SDS011;534;48.704;9.122;2023-09-12T14:08:27;4.90;;;3.00;;
1090;SDS011;534;48.704;9.122;2023-09-12T14:10:54;3.83;;;2.80;;
1090;SDS011;534;48.704;9.122;2023-09-12T14:13:20;4.13;;;2.80;;
1090;SDS011;534;48.704;9.122;2023-09-12T14:15:47;3.30;;;3.00;;
1090;SDS011;534;48.704;9.122;2023-09-12T14:18:14;4.20;;;3.43;;
1090;SDS011;534;48.704;9.122;2023-09-12T14:20:42;3.40;;;3.10;;
1090;SDS011;534;48.704;9.122;2023-09-12T14:23:08;3.67;;;3.30;;
1090;SDS011;534;48.704;9.122;2023-09-12T14:25:36;3.50;;;3.10;;
1090;SDS011;534;48.704;9.122;2023-09-12T14:28:03;3.80;;;3.33;;
1090;SDS011;534;48.704;9.122;2023-09-12T14:30:31;6.10;;;3.60;;
1090;SDS011;534;48.704;9.122;2023-09-12T14:33:00;3.77;;;3.10;;
1090;SDS011;534;48.704;9.122;2023-09-12T14:35:27;3.67;;;3.30;;
1090;SDS011;534;48.704;9.122;2023-09-12T14:37:54;4.87;;;3.63;;
1090;SDS011;534;48.704;9.122;2023-09-12T14:40:20;3.13;;;2.83;;
1090;SDS011;534;48.704;9.122;2023-09-12T14:42:49;3.67;;;3.37;;
1090;SDS011;534;48.704;9.122;2023-09-12T14:45:15;3.37;;;3.07;;
1090;SDS011;534;48.704;9.122;2023-09-12T14:47:43;3.40;;;3.10;;
1090;SDS011;534;48.704;9.122;2023-09-12T14:50:09;3.63;;;3.33;;
1090;SDS011;534;48.704;9.122;2023-09-12T14:52:36;4.20;;;3.50;;
1090;SDS011;534;48.704;9.122;2023-09-12T14:55:03;5.23;;;3.43;;
1090;SDS011;534;48.704;9.122;2023-09-12T14:57:31;4.70;;;3.03;;
1090;SDS011;534;48.704;9.122;2023-09-12T14:59:59;3.20;;;2.90;;
1090;SDS011;534;48.704;9.122;2023-09-12T15:02:26;3.20;;;2.90;;
1090;SDS011;534;48.704;9.122;2023-09-12T15:04:56;4.00;;;3.60;;
1090;SDS011;534;48.704;9.122;2023-09-12T15:07:23;3.10;;;2.80;;
1090;SDS011;534;48.704;9.122;2023-09-12T15:09:50;3.80;;;3.00;;
1090;SDS011;534;48.704;9.122;2023-09-12T15:12:17;4.50;;;2.70;;
1090;SDS011;534;48.704;9.122;2023-09-12T15:14:44;4.13;;;3.30;;
1090;SDS011;534;48.704;9.122;2023-09-12T15:17:12;4.40;;;3.10;;
1090;SDS011;534;48.704;9.122;2023-09-12T15:19:38;3.70;;;3.40;;
1090;SDS011;534;48.704;9.122;2023-09-12T15:22:05;3.83;;;3.43;;
1090;SDS011;534;48.704;9.122;2023-09-12T15:24:32;4.13;;;3.30;;
1090;SDS011;534;48.704;9.122;2023-09-12T15:26:58;3.70;;;3.13;;
1090;SDS011;534;48.704;9.122;2023-09-12T15:29:25;4.20;;;2.97;;
1090;SDS011;534;48.704;9.122;2023-09-12T15:31:53;3.03;;;2.73;;
1090;SDS011;534;48.704;9.122;2023-09-12T15:34:21;4.50;;;3.37;;
1090;SDS011;534;48.704;9.122;2023-09-12T15:36:48;4.97;;;3.40;;
1090;SDS011;534;48.704;9.122;2023-09-12T15:39:15;3.73;;;2.93;;
1090;SDS011;534;48.704;9.122;2023-09-12T15:41:41;3.97;;;3.67;;
1090;SDS011;534;48.704;9.122;2023-09-12T15:44:08;3.53;;;3.10;;
1090;SDS011;534;48.704;9.122;2023-09-12T15:46:35;4.57;;;3.77;;
1090;SDS011;534;48.704;9.122;2023-09-12T15:49:01;3.17;;;2.87;;
1090;SDS011;534;48.704;9.122;2023-09-12T15:51:31;3.70;;;3.23;;
1090;SDS011;534;48.704;9.122;2023-09-12T15:53:58;3.60;;;3.30;;
1090;SDS011;534;48.704;9.122;2023-09-12T15:56:25;4.60;;;3.80;;
1090;SDS011;534;48.704;9.122;2023-09-12T15:58:51;4.43;;;3.67;;
1090;SDS011;534;48.704;9.122;2023-09-12T16:01:20;4.93;;;3.50;;
1090;SDS011;534;48.704;9.122;2023-09-12T16:03:47;4.53;;;3.37;;
1090;SDS011;534;48.704;9.122;2023-09-12T16:06:14;3.73;;;3.07;;
1090;SDS011;534;48.704;9.122;2023-09-12T16:08:42;4.13;;;3.70;;
1090;SDS011;534;48.704;9.122;2023-09-12T16:11:09;4.20;;;3.50;;
1090;SDS011;534;48.704;9.122;2023-09-12T16:13:38;3.40;;;3.10;;
1090;SDS011;534;48.704;9.122;2023-09-12T16:16:05;4.27;;;3.87;;
1090;SDS011;534;48.704;9.122;2023-09-12T16:18:32;5.90;;;3.43;;
1090;SDS011;534;48.704;9.122;2023-09-12T16:20:59;4.40;;;3.20;;
1090;SDS011;534;48.704;9.122;2023-09-12T16:23:26;4.63;;;3.20;;
1090;SDS011;534;48.704;9.122;2023-09-12T16:25:57;3.57;;;3.03;;
1090;SDS011;534;48.704;9.122;2023-09-12T16:28:25;3.60;;;3.30;;
1090;SDS011;534;48.704;9.122;2023-09-12T16:30:52;4.57;;;3.40;;
1090;SDS011;534;48.704;9.122;2023-09-12T16:33:20;3.47;;;3.17;;
1090;SDS011;534;48.704;9.122;2023-09-12T16:35:47;5.23;;;3.60;;
1090;SDS011;534;48.704;9.122;2023-09-12T16:38:15;5.60;;;3.30;;
1090;SDS011;534;48.704;9.122;2023-09-12T16:40:41;3.40;;;3.10;;
1090;SDS011;534;48.704;9.122;2023-09-12T16:46:15;4.10;;;3.70;;
1090;SDS011;534;48.704;9.122;2023-09-12T16:48:42;3.97;;;3.30;;
1090;SDS011;534;48.704;9.122;2023-09-12T16:51:09;3.43;;;3.10;;
1090;SDS011;534;48.704;9.122;2023-09-12T16:53:36;3.50;;;3.20;;
1090;SDS011;534;48.704;9.122;2023-09-12T16:56:03;3.37;;;2.90;;
1090;SDS011;534;48.704;9.122;2023-09-12T16:58:30;3.30;;;2.90;;
1090;SDS011;534;48.704;9.122;2023-09-12T17:00:58;3.30;;;2.90;;
1090;SDS011;534;48.704;9.122;2023-09-12T17:03:25;3.03;;;2.73;;
1090;SDS011;534;48.704;9.122;2023-09-12T17:05:52;3.23;;;2.93;;
1090;SDS011;534;48.704;9.122;2023-09-12T17:08:20;6.87;;;3.53;;
1090;SDS011;534;48.704;9.122;2023-09-12T17:10:47;3.63;;;3.33;;
1090;SDS011;534;48.704;9.122;2023-09-12T17:13:14;4.10;;;3.70;;
1090;SDS011;534;48.704;9.122;2023-09-12T17:15:41;3.20;;;2.90;;
1090;SDS011;534;48.704;9.122;2023-09-12T17:18:09;3.40;;;3.10;;
1090;SDS011;534;48.704;9.122;2023-09-12T17:20:35;3.70;;;3.10;;
1090;SDS011;534;48.704;9.122;2023-09-12T17:23:02;3.50;;;3.20;;
1090;SDS011;534;48.704;9.122;2023-09-12T17:25:29;4.70;;;2.37;;
1090;SDS011;534;48.704;9.122;2023-09-12T17:27:56;3.97;;;3.00;;
1090;SDS011;534;48.704;9.122;2023-09-12T17:30:22;3.43;;;2.80;;
1090;SDS011;534;48.704;9.122;2023-09-12T17:32:49;3.73;;;3.23;;
1090;SDS011;534;48.704;9.122;2023-09-12T17:35:18;2.83;;;2.63;;
1090;SDS011;534;48.704;9.122;2023-09-12T17:37:46;3.50;;;2.80;;
1090;SDS011;534;48.704;9.122;2023-09-12T17:40:12;2.83;;;2.53;;
1090;SDS011;534;48.704;9.122;2023-09-12T17:42:39;2.87;;;2.57;;
1090;SDS011;534;48.704;9.122;2023-09-12T17:45:06;2.40;;;2.20;;
1090;SDS011;534;48.704;9.122;2023-09-12T17:47:33;2.47;;;2.27;;
1090;SDS011;534;48.704;9.122;2023-09-12T17:50:00;3.00;;;2.70;;
1090;SDS011;534;48.704;9.122;2023-09-12T17:52:29;3.60;;;2.90;;
1090;SDS011;534;48.704;9.122;2023-09-12T17:54:56;3.33;;;2.80;;
1090;SDS011;534;48.704;9.122;2023-09-12T17:57:23;2.40;;;2.00;;
1090;SDS011;534;48.704;9.122;2023-09-12T17:59:49;3.07;;;2.77;;
1090;SDS011;534;48.704;9.122;2023-09-12T18:02:20;2.30;;;2.10;;
1090;SDS011;534;48.704;9.122;2023-09-12T18:04:46;3.20;;;2.50;;
1090;SDS011;534;48.704;9.122;2023-09-12T18:07:13;3.37;;;2.73;;
1090;SDS011;534;48.704;9.122;2023-09-12T18:09:43;3.23;;;2.70;;
1090;SDS011;534;48.704;9.122;2023-09-12T18:12:10;4.27;;;2.53;;
1090;SDS011;534;48.704;9.122;2023-09-12T18:14:37;4.00;;;2.77;;
1090;SDS011;534;48.704;9.122;2023-09-12T18:17:04;2.90;;;2.60;;
1090;SDS011;534;48.704;9.122;2023-09-12T18:19:30;2.93;;;2.70;;
1090;SDS011;534;48.704;9.122;2023-09-12T18:21:57;3.20;;;2.90;;
1090;SDS011;534;48.704;9.122;2023-09-12T18:24:24;2.70;;;2.50;;
1090;SDS011;534;48.704;9.122;2023-09-12T18:26:52;2.67;;;2.47;;
1090;SDS011;534;48.704;9.122;2023-09-12T18:29:19;4.40;;;2.63;;
1090;SDS011;534;48.704;9.122;2023-09-12T18:31:47;3.03;;;2.73;;
1090;SDS011;534;48.704;9.122;2023-09-12T18:34:14;2.90;;;2.70;;
1090;SDS011;534;48.704;9.122;2023-09-12T18:36:42;3.33;;;2.73;;
1090;SDS011;534;48.704;9.122;2023-09-12T18:39:09;3.63;;;3.00;;
1090;SDS011;534;48.704;9.122;2023-09-12T18:41:36;3.20;;;2.50;;
1090;SDS011;534;48.704;9.122;2023-09-12T18:44:05;2.90;;;2.40;;
1090;SDS011;534;48.704;9.122;2023-09-12T18:46:32;2.90;;;2.60;;
1090;SDS011;534;48.704;9.122;2023-09-12T18:48:58;2.20;;;1.97;;
1090;SDS011;534;48.704;9.122;2023-09-12T18:51:25;2.40;;;2.20;;
1090;SDS011;534;48.704;9.122;2023-09-12T18:53:52;3.13;;;2.83;;
1090;SDS011;534;48.704;9.122;2023-09-12T18:56:18;2.90;;;2.60;;
1090;SDS011;534;48.704;9.122;2023-09-12T18:58:45;3.53;;;3.00;;
1090;SDS011;534;48.704;9.122;2023-09-12T19:01:13;3.40;;;3.10;;
1090;SDS011;534;48.704;9.122;2023-09-12T19:03:40;3.27;;;2.60;;
1090;SDS011;534;48.704;9.122;2023-09-12T19:06:07;2.80;;;2.50;;
1090;SDS011;534;48.704;9.122;2023-09-12T19:08:34;3.20;;;2.77;;
1090;SDS011;534;48.704;9.122;2023-09-12T19:11:05;2.77;;;2.57;;
1090;SDS011;534;48.704;9.122;2023-09-12T19:13:32;2.80;;;2.30;;
1090;SDS011;534;48.704;9.122;2023-09-12T19:15:59;2.70;;;2.40;;
1090;SDS011;534;48.704;9.122;2023-09-12T19:18:28;2.93;;;2.60;;
1090;SDS011;534;48.704;9.122;2023-09-12T19:20:55;3.37;;;2.23;;
1090;SDS011;534;48.704;9.122;2023-09-12T19:23:22;2.67;;;2.47;;
1090;SDS011;534;48.704;9.122;2023-09-12T19:25:48;2.67;;;2.47;;
1090;SDS011;534;48.704;9.122;2023-09-12T19:28:15;2.93;;;2.63;;
1090;SDS011;534;48.704;9.122;2023-09-12T19:30:42;3.50;;;3.03;;
1090;SDS011;534;48.704;9.122;2023-09-12T19:33:09;2.73;;;2.37;;
1090;SDS011;534;48.704;9.122;2023-09-12T19:35:37;2.67;;;2.27;;
1090;SDS011;534;48.704;9.122;2023-09-12T19:38:05;2.57;;;2.27;;